createdAt,value
2019-06-01T00:01:51.055Z,98.90
2019-06-01T00:04:18.322Z,99.20
2019-06-01T00:06:46.938Z,99.70
2019-06-01T00:09:13.825Z,99.50
2019-06-01T00:11:41.268Z,98.90
2019-06-01T00:14:09.992Z,99.30
2019-06-01T00:16:36.338Z,99.10
2019-06-01T00:19:02.966Z,99.00
2019-06-01T00:21:33.941Z,99.40
2019-06-01T00:24:00.627Z,99.60
2019-06-01T00:26:27.262Z,99.10
2019-06-01T00:28:53.929Z,99.70
2019-06-01T00:31:20.616Z,99.60
2019-06-01T00:33:47.660Z,99.20
2019-06-01T00:36:14.596Z,99.20
2019-06-01T00:38:41.696Z,99.30
2019-06-01T00:41:08.386Z,99.40
2019-06-01T00:43:36.999Z,99.20
2019-06-01T00:46:03.627Z,99.50
2019-06-01T00:48:30.318Z,98.80
2019-06-01T00:50:56.956Z,99.00
2019-06-01T00:53:23.591Z,99.90
2019-06-01T00:55:51.477Z,99.70
2019-06-01T00:58:18.208Z,99.60
2019-06-01T01:00:46.119Z,99.40
2019-06-01T01:03:13.743Z,99.40
2019-06-01T01:05:41.872Z,99.30
2019-06-01T01:08:09.851Z,99.80
2019-06-01T01:10:36.523Z,99.90
2019-06-01T01:13:03.359Z,99.30
2019-06-01T01:15:30.001Z,99.50
2019-06-01T01:17:56.686Z,99.30
2019-06-01T01:20:23.543Z,99.20
2019-06-01T01:22:50.351Z,98.90
2019-06-01T01:25:16.968Z,99.20
2019-06-01T01:27:44.017Z,99.90
2019-06-01T01:30:10.623Z,99.30
2019-06-01T01:32:37.553Z,98.80
2019-06-01T01:35:04.486Z,98.90
2019-06-01T01:37:31.230Z,99.10
2019-06-01T01:39:58.597Z,98.90
2019-06-01T01:42:25.583Z,99.30
2019-06-01T01:44:52.580Z,98.80
2019-06-01T01:47:19.223Z,98.20
2019-06-01T01:49:46.327Z,97.90
2019-06-01T01:52:18.470Z,98.60
2019-06-01T01:54:46.284Z,98.50
2019-06-01T01:57:13.036Z,98.80
2019-06-01T01:59:57.736Z,98.50
2019-06-01T02:02:24.888Z,98.50
2019-06-01T02:04:51.810Z,98.80
2019-06-01T02:07:18.411Z,99.20
2019-06-01T02:09:46.634Z,99.50
2019-06-01T02:12:13.248Z,99.00
2019-06-01T02:14:40.027Z,98.90
2019-06-01T02:17:06.682Z,98.70
2019-06-01T02:19:37.538Z,99.30
2019-06-01T02:22:03.572Z,99.10
2019-06-01T02:24:30.076Z,99.00
2019-06-01T02:26:57.232Z,98.60
2019-06-01T02:29:23.865Z,98.80
2019-06-01T02:31:52.656Z,98.80
2019-06-01T02:34:19.971Z,98.80
2019-06-01T02:36:46.692Z,98.70
2019-06-01T02:39:13.623Z,98.70
2019-06-01T02:41:40.225Z,99.60
2019-06-01T02:44:10.195Z,99.90
2019-06-01T02:46:36.843Z,99.90
2019-06-01T02:49:04.290Z,99.90
2019-06-01T02:51:31.783Z,99.90
2019-06-01T02:53:59.565Z,99.90
2019-06-01T02:56:29.595Z,99.90
2019-06-01T02:58:56.213Z,99.90
2019-06-01T03:01:25.382Z,99.90
2019-06-01T03:03:52.024Z,99.90
2019-06-01T03:06:19.088Z,99.20
2019-06-01T03:08:45.779Z,98.60
2019-06-01T03:11:17.473Z,98.80
2019-06-01T03:13:44.225Z,99.20
2019-06-01T03:18:50.305Z,99.20
2019-06-01T03:26:40.853Z,99.90
2019-06-01T03:29:09.492Z,99.30
2019-06-01T03:31:36.659Z,99.60
2019-06-01T03:34:04.411Z,99.50
2019-06-01T03:36:31.923Z,99.80
2019-06-01T03:38:59.874Z,99.90
2019-06-01T03:41:26.935Z,99.60
2019-06-01T03:46:37.691Z,99.90
2019-06-01T03:49:05.659Z,99.60
2019-06-01T03:51:32.674Z,99.90
2019-06-01T03:54:00.598Z,99.90
2019-06-01T03:56:27.897Z,99.90
2019-06-01T03:58:54.507Z,99.60
2019-06-01T04:01:21.126Z,99.60
2019-06-01T04:03:47.807Z,99.90
2019-06-01T04:06:14.411Z,99.90
2019-06-01T04:11:25.109Z,99.90
2019-06-01T04:13:51.722Z,99.90
2019-06-01T04:19:03.714Z,99.90
2019-06-01T04:21:33.109Z,99.90
2019-06-01T04:23:59.749Z,99.90
2019-06-01T04:26:27.116Z,99.90
2019-06-01T04:28:53.752Z,99.90
2019-06-01T04:31:20.520Z,99.90
2019-06-01T04:33:47.404Z,99.10
2019-06-01T04:36:14.341Z,98.90
2019-06-01T04:38:41.238Z,99.40
2019-06-01T04:41:07.900Z,99.50
2019-06-01T04:43:34.560Z,99.30
2019-06-01T04:46:01.439Z,98.70
2019-06-01T04:48:28.123Z,98.70
2019-06-01T04:50:55.054Z,98.90
2019-06-01T04:53:21.690Z,99.10
2019-06-01T04:55:48.588Z,99.00
2019-06-01T04:58:15.187Z,97.70
2019-06-01T05:00:42.143Z,98.00
2019-06-01T05:03:13.497Z,98.00
2019-06-01T05:05:40.874Z,98.30
2019-06-01T05:08:07.474Z,98.40
2019-06-01T05:10:34.356Z,97.40
2019-06-01T05:13:01.079Z,96.50
2019-06-01T05:15:27.740Z,97.30
2019-06-01T05:17:55.954Z,98.80
2019-06-01T05:20:22.684Z,98.70
2019-06-01T05:22:49.614Z,99.60
2019-06-01T05:25:17.174Z,99.90
2019-06-01T05:27:43.968Z,99.80
2019-06-01T05:30:13.771Z,97.40
2019-06-01T05:32:40.597Z,97.40
2019-06-01T05:35:07.755Z,96.80
2019-06-01T05:38:16.546Z,97.40
2019-06-01T05:40:38.929Z,97.90
2019-06-01T05:43:05.634Z,97.70
2019-06-01T05:45:32.574Z,98.30
2019-06-01T05:47:59.257Z,97.00
2019-06-01T05:50:25.904Z,95.30
2019-06-01T05:52:52.504Z,95.40
2019-06-01T05:55:19.878Z,96.00
2019-06-01T05:57:46.786Z,95.70
2019-06-01T06:00:13.527Z,95.10
2019-06-01T06:02:40.852Z,95.50
2019-06-01T06:05:10.675Z,95.20
2019-06-01T06:07:38.046Z,95.30
2019-06-01T06:10:04.877Z,94.20
2019-06-01T06:12:34.568Z,94.30
2019-06-01T06:15:07.852Z,93.70
2019-06-01T06:17:38.458Z,93.20
2019-06-01T06:20:23.155Z,93.20
2019-06-01T06:22:50.785Z,92.10
2019-06-01T06:25:18.084Z,91.50
2019-06-01T06:27:44.914Z,91.70
2019-06-01T06:30:12.797Z,91.70
2019-06-01T06:32:40.053Z,92.40
2019-06-01T06:35:07.109Z,91.80
2019-06-01T06:37:34.038Z,92.70
2019-06-01T06:40:00.911Z,92.20
2019-06-01T06:42:27.842Z,92.50
2019-06-01T06:44:54.540Z,93.10
2019-06-01T06:47:21.459Z,91.70
2019-06-01T06:49:48.251Z,91.70
2019-06-01T06:52:15.555Z,92.20
2019-06-01T06:54:42.439Z,91.60
2019-06-01T06:57:09.333Z,92.40
2019-06-01T06:59:37.019Z,93.10
2019-06-01T07:02:04.292Z,93.00
2019-06-01T07:04:31.168Z,94.10
2019-06-01T07:06:57.963Z,94.50
2019-06-01T07:09:26.085Z,94.00
2019-06-01T07:11:53.158Z,95.10
2019-06-01T07:14:21.199Z,94.10
2019-06-01T07:16:48.126Z,93.70
2019-06-01T07:19:15.017Z,93.00
2019-06-01T07:21:41.984Z,92.30
2019-06-01T07:24:09.292Z,92.30
2019-06-01T07:26:36.277Z,92.50
2019-06-01T07:29:04.041Z,92.40
2019-06-01T07:31:32.441Z,91.10
2019-06-01T07:33:59.374Z,91.30
2019-06-01T07:36:27.047Z,90.40
2019-06-01T07:38:54.154Z,90.70
2019-06-01T07:41:22.452Z,89.20
2019-06-01T07:43:49.245Z,89.00
2019-06-01T07:46:16.530Z,87.80
2019-06-01T07:48:43.259Z,85.70
2019-06-01T07:51:10.287Z,88.10
2019-06-01T07:53:38.560Z,87.30
2019-06-01T07:56:05.531Z,87.00
2019-06-01T07:58:33.006Z,85.70
2019-06-01T08:00:59.736Z,85.70
2019-06-01T08:03:30.706Z,84.70
2019-06-01T08:05:55.125Z,83.30
2019-06-01T08:08:23.310Z,86.50
2019-06-01T08:10:50.405Z,82.20
2019-06-01T08:13:17.335Z,80.10
2019-06-01T08:15:44.243Z,79.20
2019-06-01T08:18:11.496Z,79.60
2019-06-01T08:20:38.526Z,79.30
2019-06-01T08:23:05.743Z,79.70
2019-06-01T08:25:32.826Z,78.30
2019-06-01T08:27:59.603Z,80.40
2019-06-01T08:30:26.791Z,78.80
2019-06-01T08:32:53.753Z,78.80
2019-06-01T08:35:21.155Z,77.50
2019-06-01T08:37:48.112Z,75.70
2019-06-01T08:40:15.078Z,78.60
2019-06-01T08:42:43.502Z,78.50
2019-06-01T08:45:10.420Z,75.00
2019-06-01T08:47:37.372Z,76.60
2019-06-01T08:50:04.258Z,74.80
2019-06-01T08:52:32.230Z,75.20
2019-06-01T08:54:59.293Z,74.70
2019-06-01T08:57:26.256Z,74.80
2019-06-01T08:59:53.169Z,77.30
2019-06-01T09:02:20.180Z,72.90
2019-06-01T09:04:47.463Z,75.10
2019-06-01T09:07:17.442Z,74.30
2019-06-01T09:09:47.914Z,72.50
2019-06-01T09:12:27.274Z,71.50
2019-06-01T09:14:54.369Z,77.50
2019-06-01T09:17:22.015Z,73.90
2019-06-01T09:19:50.803Z,70.80
2019-06-01T09:22:35.767Z,68.60
2019-06-01T09:25:02.864Z,71.90
2019-06-01T09:27:30.101Z,73.40
2019-06-01T09:29:56.796Z,75.00
2019-06-01T09:32:23.900Z,73.70
2019-06-01T09:34:55.628Z,75.90
2019-06-01T09:37:22.681Z,67.40
2019-06-01T09:39:53.190Z,70.40
2019-06-01T09:42:22.255Z,74.30
2019-06-01T09:44:48.726Z,71.30
2019-06-01T09:47:15.983Z,71.30
2019-06-01T09:49:42.993Z,72.50
2019-06-01T09:52:12.546Z,72.90
2019-06-01T09:54:38.459Z,69.60
2019-06-01T09:57:05.149Z,70.10
2019-06-01T09:59:32.233Z,68.80
2019-06-01T10:01:59.219Z,67.40
2019-06-01T10:04:26.205Z,67.10
2019-06-01T10:06:53.176Z,64.70
2019-06-01T10:09:20.093Z,65.10
2019-06-01T10:14:17.135Z,67.50
2019-06-01T10:16:46.786Z,65.90
2019-06-01T10:19:14.016Z,66.00
2019-06-01T10:21:42.192Z,67.80
2019-06-01T10:24:09.127Z,68.60
2019-06-01T10:26:43.539Z,70.80
2019-06-01T10:29:11.233Z,67.50
2019-06-01T10:31:41.195Z,66.20
2019-06-01T10:34:06.844Z,69.10
2019-06-01T10:36:37.970Z,65.50
2019-06-01T10:39:04.721Z,67.30
2019-06-01T10:41:31.731Z,64.20
2019-06-01T10:46:45.675Z,66.30
2019-06-01T10:49:12.384Z,64.40
2019-06-01T10:54:23.408Z,68.00
2019-06-01T10:57:06.340Z,62.80
2019-06-01T10:59:34.259Z,59.90
2019-06-01T11:02:01.939Z,63.90
2019-06-01T11:04:29.270Z,61.30
2019-06-01T11:06:58.296Z,64.50
2019-06-01T11:09:27.512Z,63.90
2019-06-01T11:11:54.949Z,60.20
2019-06-01T11:14:22.067Z,62.00
2019-06-01T11:16:55.639Z,62.70
2019-06-01T11:21:53.022Z,59.10
2019-06-01T11:24:19.866Z,60.90
2019-06-01T11:26:51.574Z,62.80
2019-06-01T11:29:20.940Z,61.50
2019-06-01T11:31:47.912Z,60.00
2019-06-01T11:34:14.980Z,61.10
2019-06-01T11:37:01.900Z,60.10
2019-06-01T11:39:15.928Z,61.20
2019-06-01T11:41:42.629Z,61.90
2019-06-01T11:44:10.050Z,63.40
2019-06-01T11:46:36.989Z,61.80
2019-06-01T11:49:05.477Z,63.00
2019-06-01T11:51:32.529Z,63.60
2019-06-01T11:54:11.378Z,63.40
2019-06-01T11:56:39.189Z,59.70
2019-06-01T11:59:06.234Z,61.90
2019-06-01T12:01:33.282Z,61.30
2019-06-01T12:04:00.486Z,61.10
2019-06-01T12:06:27.930Z,61.20
2019-06-01T12:08:54.854Z,62.50
2019-06-01T12:11:22.023Z,61.60
2019-06-01T12:13:53.776Z,61.00
2019-06-01T12:16:25.881Z,57.40
2019-06-01T12:18:53.106Z,57.60
2019-06-01T12:21:20.083Z,60.90
2019-06-01T12:23:47.574Z,60.30
2019-06-01T12:26:14.850Z,59.70
2019-06-01T12:28:42.146Z,57.70
2019-06-01T12:31:08.829Z,59.50
2019-06-01T12:33:35.973Z,58.50
2019-06-01T12:36:02.995Z,58.00
2019-06-01T12:38:29.979Z,57.40
2019-06-01T12:40:57.959Z,56.80
2019-06-01T12:43:24.925Z,56.40
2019-06-01T12:46:06.528Z,56.20
2019-06-01T12:48:24.039Z,56.40
2019-06-01T12:50:51.047Z,55.20
2019-06-01T12:53:18.135Z,58.90
2019-06-01T12:55:48.880Z,57.30
2019-06-01T12:58:16.009Z,57.20
2019-06-01T13:00:44.155Z,59.30
2019-06-01T13:03:11.214Z,62.20
2019-06-01T13:05:38.251Z,60.20
2019-06-01T13:08:05.324Z,58.70
2019-06-01T13:10:32.330Z,62.20
2019-06-01T13:12:59.351Z,60.50
2019-06-01T13:15:29.471Z,57.60
2019-06-01T13:17:56.976Z,56.10
2019-06-01T13:20:25.029Z,59.60
2019-06-01T13:22:52.024Z,55.30
2019-06-01T13:25:19.058Z,58.00
2019-06-01T13:30:21.201Z,57.30
2019-06-01T13:32:48.726Z,57.50
2019-06-01T13:35:21.789Z,57.30
2019-06-01T13:37:50.989Z,55.10
2019-06-01T13:40:18.405Z,58.40
2019-06-01T13:42:45.395Z,59.60
2019-06-01T13:45:12.425Z,56.30
2019-06-01T13:47:39.346Z,58.60
2019-06-01T13:50:08.893Z,57.50
2019-06-01T13:52:35.928Z,57.00
2019-06-01T13:57:48.315Z,56.80
2019-06-01T14:00:29.244Z,56.00
2019-06-01T14:02:49.006Z,55.70
2019-06-01T14:05:14.042Z,57.40
2019-06-01T14:07:41.017Z,56.40
2019-06-01T14:10:07.930Z,55.10
2019-06-01T14:12:35.018Z,54.00
2019-06-01T14:15:01.915Z,56.00
2019-06-01T14:17:28.991Z,55.40
2019-06-01T14:19:56.143Z,57.60
2019-06-01T14:22:40.616Z,56.60
2019-06-01T14:25:13.650Z,58.20
2019-06-01T14:30:24.123Z,56.00
2019-06-01T14:33:06.742Z,56.50
2019-06-01T14:35:30.175Z,57.30
2019-06-01T14:37:57.446Z,55.50
2019-06-01T14:40:28.567Z,54.00
2019-06-01T14:42:55.659Z,55.40
2019-06-01T14:45:22.822Z,54.80
2019-06-01T14:47:50.036Z,54.10
2019-06-01T14:50:17.017Z,56.80
2019-06-01T14:52:44.036Z,55.20
2019-06-01T14:55:10.999Z,54.70
2019-06-01T14:57:37.693Z,54.40
2019-06-01T15:00:05.061Z,57.40
2019-06-01T15:05:09.937Z,56.20
2019-06-01T15:07:37.889Z,55.70
2019-06-01T15:10:04.975Z,56.70
2019-06-01T15:12:32.157Z,57.40
2019-06-01T15:14:59.598Z,58.70
2019-06-01T15:17:27.267Z,57.30
2019-06-01T15:19:54.314Z,56.70
2019-06-01T15:22:21.326Z,57.30
2019-06-01T15:24:48.275Z,57.70
2019-06-01T15:27:15.382Z,56.80
2019-06-01T15:29:42.058Z,58.70
2019-06-01T15:32:15.766Z,59.10
2019-06-01T15:34:39.779Z,59.00
2019-06-01T15:37:06.752Z,57.40
2019-06-01T15:39:33.505Z,58.70
2019-06-01T15:42:01.343Z,58.50
2019-06-01T15:44:28.356Z,58.20
2019-06-01T15:46:55.840Z,57.00
2019-06-01T15:49:22.820Z,57.30
2019-06-01T15:51:49.794Z,57.90
2019-06-01T15:54:17.791Z,57.70
2019-06-01T15:56:45.051Z,58.90
2019-06-01T15:59:12.113Z,59.40
2019-06-01T16:01:39.162Z,57.40
2019-06-01T16:04:06.142Z,58.10
2019-06-01T16:06:33.390Z,58.50
2019-06-01T16:09:01.661Z,59.90
2019-06-01T16:11:28.948Z,58.40
2019-06-01T16:13:55.909Z,58.60
2019-06-01T16:16:22.587Z,61.00
2019-06-01T16:18:49.950Z,60.00
2019-06-01T16:21:16.722Z,61.30
2019-06-01T16:23:49.724Z,59.80
2019-06-01T16:26:16.051Z,60.70
2019-06-01T16:28:40.767Z,59.70
2019-06-01T16:31:07.717Z,57.70
2019-06-01T16:33:34.661Z,57.20
2019-06-01T16:36:03.381Z,57.20
2019-06-01T16:38:30.737Z,58.30
2019-06-01T16:41:03.331Z,57.50
2019-06-01T16:43:26.477Z,56.50
2019-06-01T16:45:53.678Z,57.20
2019-06-01T16:48:20.798Z,56.60
2019-06-01T16:50:47.809Z,56.40
2019-06-01T16:53:14.898Z,56.50
2019-06-01T16:55:42.098Z,58.00
2019-06-01T16:58:09.165Z,56.00
2019-06-01T17:00:39.416Z,56.00
2019-06-01T17:03:07.844Z,57.10
2019-06-01T17:05:35.294Z,57.40
2019-06-01T17:08:02.802Z,56.40
2019-06-01T17:10:30.057Z,56.20
2019-06-01T17:12:57.224Z,56.90
2019-06-01T17:15:26.270Z,58.10
2019-06-01T17:17:53.023Z,57.30
2019-06-01T17:20:20.114Z,57.90
2019-06-01T17:22:47.153Z,57.90
2019-06-01T17:25:14.231Z,57.80
2019-06-01T17:27:42.138Z,58.60
2019-06-01T17:30:11.769Z,59.40
2019-06-01T17:32:37.741Z,59.60
2019-06-01T17:35:05.119Z,59.60
2019-06-01T17:37:32.174Z,60.00
2019-06-01T17:40:00.032Z,60.00
2019-06-01T17:42:26.848Z,60.30
2019-06-01T17:44:53.813Z,62.20
2019-06-01T17:47:20.875Z,61.30
2019-06-01T17:49:48.001Z,61.60
2019-06-01T17:52:17.755Z,61.30
2019-06-01T17:54:45.035Z,61.00
2019-06-01T17:57:12.193Z,62.70
2019-06-01T17:59:39.286Z,61.30
2019-06-01T18:02:07.852Z,62.80
2019-06-01T18:04:35.195Z,63.60
2019-06-01T18:07:03.668Z,63.70
2019-06-01T18:09:31.220Z,63.20
2019-06-01T18:11:59.647Z,66.10
2019-06-01T18:14:27.151Z,65.00
2019-06-01T18:16:56.213Z,63.50
2019-06-01T18:19:23.292Z,67.20
2019-06-01T18:21:50.554Z,66.50
2019-06-01T18:24:17.931Z,67.00
2019-06-01T18:26:44.762Z,68.10
2019-06-01T18:29:12.926Z,68.80
2019-06-01T18:31:40.260Z,68.90
2019-06-01T18:34:07.835Z,66.40
2019-06-01T18:36:35.055Z,67.30
2019-06-01T18:39:13.696Z,67.40
2019-06-01T18:41:31.493Z,67.20
2019-06-01T18:44:00.195Z,68.70
2019-06-01T18:46:27.360Z,68.80
2019-06-01T18:48:54.706Z,69.80
2019-06-01T18:51:25.953Z,70.00
2019-06-01T18:53:52.872Z,71.20
2019-06-01T18:56:20.142Z,70.30
2019-06-01T18:58:49.165Z,70.20
2019-06-01T19:01:20.600Z,70.00
2019-06-01T19:03:46.846Z,68.50
2019-06-01T19:06:14.095Z,71.30
2019-06-01T19:08:47.171Z,72.50
2019-06-01T19:11:30.682Z,71.70
2019-06-01T19:13:43.329Z,71.50
2019-06-01T19:16:10.541Z,71.00
2019-06-01T19:18:39.937Z,72.00
2019-06-01T19:21:07.130Z,70.70
2019-06-01T19:23:34.308Z,71.70
2019-06-01T19:26:01.520Z,72.20
2019-06-01T19:28:29.445Z,74.30
2019-06-01T19:30:56.675Z,72.90
2019-06-01T19:33:25.049Z,73.20
2019-06-01T19:35:58.230Z,75.20
2019-06-01T19:38:21.430Z,73.80
2019-06-01T19:40:49.261Z,75.30
2019-06-01T19:43:19.678Z,74.70
2019-06-01T19:45:46.421Z,74.60
2019-06-01T19:48:14.531Z,73.70
2019-06-01T19:50:42.113Z,75.80
2019-06-01T19:53:09.116Z,74.80
2019-06-01T19:55:37.592Z,73.70
2019-06-01T19:58:07.247Z,73.30
2019-06-01T20:00:33.536Z,75.00
2019-06-01T20:03:00.762Z,74.00
2019-06-01T20:05:32.589Z,74.00
2019-06-01T20:07:59.602Z,75.20
2019-06-01T20:10:26.608Z,76.00
2019-06-01T20:12:53.334Z,75.50
2019-06-01T20:15:21.555Z,76.60
2019-06-01T20:17:48.632Z,78.10
2019-06-01T20:20:16.913Z,76.30
2019-06-01T20:22:44.073Z,77.60
2019-06-01T20:25:11.554Z,77.70
2019-06-01T20:27:38.614Z,77.50
2019-06-01T20:30:05.786Z,76.90
2019-06-01T20:32:34.278Z,77.50
2019-06-01T20:35:01.460Z,77.60
2019-06-01T20:37:29.016Z,79.60
2019-06-01T20:39:57.302Z,79.70
2019-06-01T20:42:31.828Z,79.10
2019-06-01T20:44:59.161Z,81.40
2019-06-01T20:47:31.752Z,80.40
2019-06-01T20:49:59.216Z,81.10
2019-06-01T20:52:23.591Z,80.20
2019-06-01T20:54:50.857Z,79.90
2019-06-01T20:57:21.432Z,80.50
2019-06-01T20:59:48.494Z,81.30
2019-06-01T21:02:15.793Z,81.20
2019-06-01T21:07:15.729Z,80.90
2019-06-01T21:09:42.632Z,81.40
2019-06-01T21:12:09.773Z,79.10
2019-06-01T21:14:37.095Z,79.30
2019-06-01T21:17:04.088Z,80.80
2019-06-01T21:19:31.126Z,80.30
2019-06-01T21:21:58.133Z,80.80
2019-06-01T21:24:25.256Z,80.10
2019-06-01T21:26:52.351Z,79.50
2019-06-01T21:29:22.716Z,80.00
2019-06-01T21:31:48.411Z,81.10
2019-06-01T21:34:15.551Z,80.70
2019-06-01T21:36:42.897Z,80.30
2019-06-01T21:39:09.900Z,81.10
2019-06-01T21:41:36.896Z,81.90
2019-06-01T21:46:36.675Z,81.10
2019-06-01T21:49:03.666Z,81.80
2019-06-01T21:51:30.722Z,82.20
2019-06-01T21:54:02.847Z,82.60
2019-06-01T21:56:29.630Z,81.30
2019-06-01T21:58:57.992Z,81.90
2019-06-01T22:01:25.020Z,82.50
2019-06-01T22:03:52.209Z,82.50
2019-06-01T22:06:19.395Z,80.20
2019-06-01T22:08:52.307Z,82.00
2019-06-01T22:11:14.830Z,82.30
2019-06-01T22:13:41.554Z,82.50
2019-06-01T22:16:08.608Z,83.10
2019-06-01T22:18:35.593Z,81.80
2019-06-01T22:21:02.590Z,82.30
2019-06-01T22:23:30.745Z,82.60
2019-06-01T22:25:57.920Z,83.30
2019-06-01T22:28:24.870Z,82.80
2019-06-01T22:30:51.994Z,83.10
2019-06-01T22:33:28.787Z,82.50
2019-06-01T22:35:55.893Z,84.30
2019-06-01T22:38:23.761Z,83.80
2019-06-01T22:40:50.938Z,83.70
2019-06-01T22:43:36.826Z,84.30
2019-06-01T22:45:48.087Z,84.70
2019-06-01T22:48:15.422Z,84.80
2019-06-01T22:50:42.606Z,85.60
2019-06-01T22:53:10.980Z,85.30
2019-06-01T22:55:37.989Z,85.40
2019-06-01T22:58:05.140Z,86.20
2019-06-01T23:00:35.586Z,87.40
2019-06-01T23:03:03.800Z,88.60
2019-06-01T23:05:31.297Z,88.40
2019-06-01T23:08:01.494Z,88.00
2019-06-01T23:10:32.048Z,86.40
2019-06-01T23:12:57.177Z,88.20
2019-06-01T23:15:25.580Z,88.10
2019-06-01T23:17:52.999Z,88.00
2019-06-01T23:20:19.954Z,87.60
2019-06-01T23:22:46.984Z,87.50
2019-06-01T23:25:33.340Z,86.90
2019-06-01T23:28:00.495Z,87.50
2019-06-01T23:30:28.273Z,89.20
2019-06-01T23:32:55.690Z,88.10
2019-06-01T23:35:40.309Z,89.70
2019-06-01T23:38:06.366Z,87.80
2019-06-01T23:40:33.313Z,88.40
2019-06-01T23:43:01.944Z,88.50
2019-06-01T23:45:28.931Z,88.70
2019-06-01T23:47:55.787Z,88.00
2019-06-01T23:50:23.401Z,88.20
2019-06-01T23:52:50.372Z,88.90
2019-06-01T23:55:17.068Z,88.70
2019-06-01T23:57:44.273Z,89.50
